Aérodrome :
LOGIN :

S'inscrire | Disclaimer

   EN    FR    IT 

 










Légende :    VFR   VFR Marginal   IFR   IFR Intensif   IFR Très Intensif
Visi : 
Plafond : 
>= 8 km
>= 3000ft
5 à 8 km
1000 à 3000 ft
1500m à 5 km
500 à 1000 ft
800 à 1500m
200 à 500 ft
< 800m
< 200 ft
Symboles :   Orages  Brouillard  Fortes neiges  Fortes précipitations  Vent > 20 kt
SIGMETs :   Divers  Orages  Givrage  Turbulence  Onde Orograph.  Cendres Volcan.






- Altitude de l'aérodrome : 686 ft


LYKV - Ladevci

DERNIER METAR :
  • 240930Z VRB03KT 9999 SCT043 17/09 Q1005 NOSIG

METARs EXPIRÉS :
  • 240900Z VRB01KT 9999 FEW009 SCT035 15/10 Q1005 NOSIG
  • 240830Z VRB01KT 9999 FEW008 SCT027 12/09 Q1005 NOSIG
  • 240800Z VRB01KT 9999 BKN005 11/09 Q1005 BECMG SCT010
  • 240730Z VRB01KT 6000 BKN003 09/07 Q1006 BECMG BKN008
  • 240700Z VRB01KT 1200 R31/P2000N R13/2000N BR OVC003 08/07 Q1006 BECMG 3000 BKN006
  • 240630Z VRB01KT 0500 R31/P2000N R13/1100D FG VV002 08/06 Q1006 NOSIG
  • 240600Z 00000KT 0300 R31/0600N R13/0500N FG VV002 07/06 Q1006 NOSIG
  • 240530Z VRB01KT 0300 R31/1000U R13/0650U FG VV002 07/06 Q1006 NOSIG
  • 240500Z 00000KT 0300 R31/0550N R13/0375N FG VV001 07/05 Q1006 NOSIG

TAF TAF LYKV
Valide du 24 à 06h jusqu'au 25 à 06h UTC


240500Z 2406/2506 33004KT 0400 FG VV002 TX18/2413Z TN07/2504Z
BECMG 2406/2408 5000 BR BKN005
BECMG 2408/2409 9999 NSW SCT015
TEMPO 2412/2417 23015KT 4000 TSRA SCT033CB SCT040
TEMPO 2500/2506 5000 RA BKN013 BKN025



MET'MAP, la Météo Aéronautique d'un coup d'oeil ! - Copyright ORBIFLY Décembre 2007 - Disclaimer

ORBIFLY MET'MAP TEAM :

Programmation & Développement : Alexandra Zaïnal
Sur une idée originale de : Baudouin d'Aumeries
Soutien technique & logistique : Manuel Goepfert
Assistance : Marc-Olivier Méhu




SOURCES & CREDITS :

   NOAA